sensor_id;sensor_type;location;lat;lon;timestamp;pressure;altitude;pressure_sealevel;temperature;humidity
69855;BME280;57146;48.140;16.304;2023-04-08T00:02:20;99406.22;;;5.44;89.33
69855;BME280;57146;48.140;16.304;2023-04-08T00:04:47;99408.84;;;5.39;90.16
69855;BME280;57146;48.140;16.304;2023-04-08T00:07:15;99410.44;;;5.35;90.52
69855;BME280;57146;48.140;16.304;2023-04-08T00:09:42;99410.69;;;5.38;90.74
69855;BME280;57146;48.140;16.304;2023-04-08T00:12:09;99401.56;;;5.31;90.42
69855;BME280;57146;48.140;16.304;2023-04-08T00:14:35;99405.44;;;5.33;90.43
69855;BME280;57146;48.140;16.304;2023-04-08T00:17:04;99400.75;;;5.35;90.77
69855;BME280;57146;48.140;16.304;2023-04-08T00:19:32;99402.56;;;5.29;91.59
69855;BME280;57146;48.140;16.304;2023-04-08T00:22:01;99390.31;;;5.10;92.27
69855;BME280;57146;48.140;16.304;2023-04-08T00:24:29;99401.25;;;5.12;93.48
69855;BME280;57146;48.140;16.304;2023-04-08T00:26:55;99406.25;;;5.13;92.96
69855;BME280;57146;48.140;16.304;2023-04-08T00:29:23;99404.94;;;5.11;90.92
69855;BME280;57146;48.140;16.304;2023-04-08T00:31:50;99411.16;;;4.94;89.75
69855;BME280;57146;48.140;16.304;2023-04-08T00:34:19;99412.22;;;5.03;89.58
69855;BME280;57146;48.140;16.304;2023-04-08T00:36:46;99413.53;;;5.01;89.15
69855;BME280;57146;48.140;16.304;2023-04-08T00:39:13;99416.38;;;4.84;89.85
69855;BME280;57146;48.140;16.304;2023-04-08T00:41:41;99422.31;;;4.59;90.02
69855;BME280;57146;48.140;16.304;2023-04-08T00:44:08;99424.66;;;4.66;89.54
69855;BME280;57146;48.140;16.304;2023-04-08T00:46:37;99420.75;;;4.63;90.45
69855;BME280;57146;48.140;16.304;2023-04-08T00:49:09;99430.38;;;4.57;90.73
69855;BME280;57146;48.140;16.304;2023-04-08T00:51:36;99427.22;;;4.45;90.37
69855;BME280;57146;48.140;16.304;2023-04-08T00:54:04;99425.38;;;4.46;90.51
69855;BME280;57146;48.140;16.304;2023-04-08T00:56:56;99429.31;;;4.48;89.64
69855;BME280;57146;48.140;16.304;2023-04-08T00:59:24;99431.09;;;4.38;89.68
69855;BME280;57146;48.140;16.304;2023-04-08T01:02:13;99440.16;;;4.25;90.74
69855;BME280;57146;48.140;16.304;2023-04-08T01:07:36;99433.09;;;4.20;89.99
69855;BME280;57146;48.140;16.304;2023-04-08T01:10:12;99440.59;;;4.12;91.06
69855;BME280;57146;48.140;16.304;2023-04-08T01:12:47;99435.88;;;4.03;91.32
69855;BME280;57146;48.140;16.304;2023-04-08T01:15:16;99432.66;;;3.91;91.81
69855;BME280;57146;48.140;16.304;2023-04-08T01:17:44;99435.03;;;3.98;91.79
69855;BME280;57146;48.140;16.304;2023-04-08T01:20:15;99438.94;;;3.95;92.68
69855;BME280;57146;48.140;16.304;2023-04-08T01:25:30;99436.38;;;4.00;92.75
69855;BME280;57146;48.140;16.304;2023-04-08T01:28:07;99441.59;;;4.05;91.76
69855;BME280;57146;48.140;16.304;2023-04-08T01:30:37;99446.31;;;4.08;91.97
69855;BME280;57146;48.140;16.304;2023-04-08T01:33:09;99442.00;;;3.87;92.89
69855;BME280;57146;48.140;16.304;2023-04-08T01:35:38;99439.03;;;3.73;93.40
69855;BME280;57146;48.140;16.304;2023-04-08T01:38:06;99442.28;;;3.86;93.73
69855;BME280;57146;48.140;16.304;2023-04-08T01:40:36;99445.22;;;3.99;92.17
69855;BME280;57146;48.140;16.304;2023-04-08T01:43:06;99445.22;;;3.99;92.63
69855;BME280;57146;48.140;16.304;2023-04-08T01:45:37;99443.81;;;3.87;93.11
69855;BME280;57146;48.140;16.304;2023-04-08T01:48:05;99446.69;;;3.85;93.97
69855;BME280;57146;48.140;16.304;2023-04-08T01:50:33;99438.97;;;4.00;92.16
69855;BME280;57146;48.140;16.304;2023-04-08T01:53:03;99434.81;;;3.99;91.23
69855;BME280;57146;48.140;16.304;2023-04-08T01:55:32;99440.19;;;3.88;92.41
69855;BME280;57146;48.140;16.304;2023-04-08T01:58:01;99437.00;;;3.75;92.23
69855;BME280;57146;48.140;16.304;2023-04-08T02:00:32;99440.19;;;3.88;92.42
69855;BME280;57146;48.140;16.304;2023-04-08T02:03:01;99439.56;;;3.70;92.93
69855;BME280;57146;48.140;16.304;2023-04-08T02:05:30;99436.41;;;3.68;92.98
69855;BME280;57146;48.140;16.304;2023-04-08T02:07:57;99440.09;;;3.72;92.95
69855;BME280;57146;48.140;16.304;2023-04-08T02:10:26;99440.91;;;3.78;91.88
69855;BME280;57146;48.140;16.304;2023-04-08T02:12:53;99445.09;;;3.79;91.56
69855;BME280;57146;48.140;16.304;2023-04-08T02:15:23;99450.44;;;3.62;91.91
69855;BME280;57146;48.140;16.304;2023-04-08T02:18:01;99447.63;;;3.69;92.51
69855;BME280;57146;48.140;16.304;2023-04-08T02:20:38;99444.72;;;3.65;93.72
69855;BME280;57146;48.140;16.304;2023-04-08T02:23:23;99445.00;;;3.69;94.13
69855;BME280;57146;48.140;16.304;2023-04-08T02:25:52;99450.44;;;3.62;94.13
69855;BME280;57146;48.140;16.304;2023-04-08T02:28:26;99449.84;;;3.55;93.91
69855;BME280;57146;48.140;16.304;2023-04-08T02:30:56;99445.66;;;3.49;93.65
69855;BME280;57146;48.140;16.304;2023-04-08T02:33:23;99447.31;;;3.60;93.45
69855;BME280;57146;48.140;16.304;2023-04-08T02:35:55;99447.75;;;3.52;93.53
69855;BME280;57146;48.140;16.304;2023-04-08T02:38:24;99449.34;;;3.53;93.76
69855;BME280;57146;48.140;16.304;2023-04-08T02:43:27;99448.41;;;3.37;94.35
69855;BME280;57146;48.140;16.304;2023-04-08T02:46:00;99458.03;;;3.36;94.18
69855;BME280;57146;48.140;16.304;2023-04-08T02:48:28;99453.13;;;3.40;93.71
69855;BME280;57146;48.140;16.304;2023-04-08T02:50:56;99452.13;;;3.46;93.75
69855;BME280;57146;48.140;16.304;2023-04-08T02:53:24;99456.06;;;3.49;91.88
69855;BME280;57146;48.140;16.304;2023-04-08T02:55:51;99455.19;;;3.38;92.58
69855;BME280;57146;48.140;16.304;2023-04-08T02:58:19;99452.53;;;3.33;92.46
69855;BME280;57146;48.140;16.304;2023-04-08T03:00:46;99463.41;;;3.25;93.07
69855;BME280;57146;48.140;16.304;2023-04-08T03:03:14;99458.59;;;3.39;93.08
69855;BME280;57146;48.140;16.304;2023-04-08T03:05:42;99460.06;;;3.29;92.44
69855;BME280;57146;48.140;16.304;2023-04-08T03:08:09;99464.16;;;3.20;92.80
69855;BME280;57146;48.140;16.304;2023-04-08T03:10:36;99456.13;;;3.27;92.73
69855;BME280;57146;48.140;16.304;2023-04-08T03:13:03;99460.22;;;3.18;93.69
69855;BME280;57146;48.140;16.304;2023-04-08T03:15:32;99455.59;;;3.25;93.63
69855;BME280;57146;48.140;16.304;2023-04-08T03:18:00;99460.44;;;3.16;93.46
69855;BME280;57146;48.140;16.304;2023-04-08T03:20:27;99457.03;;;3.10;92.62
69855;BME280;57146;48.140;16.304;2023-04-08T03:22:54;99462.16;;;3.05;91.63
69855;BME280;57146;48.140;16.304;2023-04-08T03:25:21;99456.44;;;3.03;91.04
69855;BME280;57146;48.140;16.304;2023-04-08T03:27:48;99458.19;;;2.98;91.79
69855;BME280;57146;48.140;16.304;2023-04-08T03:30:15;99468.09;;;3.01;92.74
69855;BME280;57146;48.140;16.304;2023-04-08T03:32:42;99469.09;;;3.22;91.79
69855;BME280;57146;48.140;16.304;2023-04-08T03:35:09;99469.25;;;3.10;91.77
69855;BME280;57146;48.140;16.304;2023-04-08T03:37:36;99469.19;;;3.05;92.59
69855;BME280;57146;48.140;16.304;2023-04-08T03:40:03;99468.13;;;3.06;92.00
69855;BME280;57146;48.140;16.304;2023-04-08T03:42:30;99478.34;;;2.85;91.69
69855;BME280;57146;48.140;16.304;2023-04-08T03:44:57;99476.09;;;2.94;91.28
69855;BME280;57146;48.140;16.304;2023-04-08T03:47:24;99482.78;;;2.85;92.49
69855;BME280;57146;48.140;16.304;2023-04-08T03:49:52;99483.28;;;2.87;92.38
69855;BME280;57146;48.140;16.304;2023-04-08T03:52:19;99486.94;;;2.86;91.93
69855;BME280;57146;48.140;16.304;2023-04-08T03:54:50;99487.97;;;2.85;92.71
69855;BME280;57146;48.140;16.304;2023-04-08T03:57:17;99495.47;;;2.81;92.58
69855;BME280;57146;48.140;16.304;2023-04-08T03:59:46;99486.06;;;2.80;92.36
69855;BME280;57146;48.140;16.304;2023-04-08T04:02:13;99488.84;;;2.74;92.00
69855;BME280;57146;48.140;16.304;2023-04-08T04:04:40;99491.97;;;2.71;92.31
69855;BME280;57146;48.140;16.304;2023-04-08T04:07:09;99498.59;;;2.61;92.84
69855;BME280;57146;48.140;16.304;2023-04-08T04:09:36;99499.84;;;2.59;92.64
69855;BME280;57146;48.140;16.304;2023-04-08T04:12:04;99504.13;;;2.48;92.31
69855;BME280;57146;48.140;16.304;2023-04-08T04:14:31;99508.50;;;2.43;92.10
69855;BME280;57146;48.140;16.304;2023-04-08T04:16:58;99506.13;;;2.41;92.14
69855;BME280;57146;48.140;16.304;2023-04-08T04:19:29;99510.50;;;2.35;91.92
69855;BME280;57146;48.140;16.304;2023-04-08T04:21:56;99508.59;;;2.31;92.48
69855;BME280;57146;48.140;16.304;2023-04-08T04:24:23;99502.72;;;2.19;92.54
69855;BME280;57146;48.140;16.304;2023-04-08T04:26:50;99516.25;;;2.21;93.26
69855;BME280;57146;48.140;16.304;2023-04-08T04:29:17;99513.09;;;2.19;93.92
69855;BME280;57146;48.140;16.304;2023-04-08T04:31:44;99510.56;;;2.24;93.74
69855;BME280;57146;48.140;16.304;2023-04-08T04:34:11;99512.38;;;2.23;93.89
69855;BME280;57146;48.140;16.304;2023-04-08T04:36:39;99512.63;;;2.22;94.00
69855;BME280;57146;48.140;16.304;2023-04-08T04:39:07;99514.91;;;2.18;94.79
69855;BME280;57146;48.140;16.304;2023-04-08T04:41:34;99512.63;;;2.22;94.14
69855;BME280;57146;48.140;16.304;2023-04-08T04:44:01;99513.38;;;2.39;94.26
69855;BME280;57146;48.140;16.304;2023-04-08T04:46:29;99515.22;;;2.60;91.47
69855;BME280;57146;48.140;16.304;2023-04-08T04:48:59;99518.13;;;2.64;89.95
69855;BME280;57146;48.140;16.304;2023-04-08T04:51:30;99525.84;;;2.59;91.40
69855;BME280;57146;48.140;16.304;2023-04-08T04:53:58;99519.34;;;2.56;92.07
69855;BME280;57146;48.140;16.304;2023-04-08T04:56:25;99523.72;;;2.56;92.76
69855;BME280;57146;48.140;16.304;2023-04-08T04:58:53;99529.91;;;2.50;93.00
69855;BME280;57146;48.140;16.304;2023-04-08T05:01:19;99529.22;;;2.59;92.97
69855;BME280;57146;48.140;16.304;2023-04-08T05:03:46;99526.63;;;2.59;92.65
69855;BME280;57146;48.140;16.304;2023-04-08T05:06:13;99538.75;;;2.71;92.86
69855;BME280;57146;48.140;16.304;2023-04-08T05:08:40;99526.88;;;2.80;91.14
69855;BME280;57146;48.140;16.304;2023-04-08T05:11:10;99533.97;;;2.84;90.80
69855;BME280;57146;48.140;16.304;2023-04-08T05:13:38;99535.78;;;2.84;90.53
69855;BME280;57146;48.140;16.304;2023-04-08T05:16:05;99540.97;;;2.84;90.90
69855;BME280;57146;48.140;16.304;2023-04-08T05:18:32;99543.34;;;2.85;92.09
69855;BME280;57146;48.140;16.304;2023-04-08T05:20:58;99539.97;;;2.85;92.73
69855;BME280;57146;48.140;16.304;2023-04-08T05:23:25;99539.41;;;2.83;93.18
69855;BME280;57146;48.140;16.304;2023-04-08T05:25:52;99545.53;;;2.72;93.50
69855;BME280;57146;48.140;16.304;2023-04-08T05:28:19;99549.97;;;2.76;94.87
69855;BME280;57146;48.140;16.304;2023-04-08T05:30:50;99547.94;;;2.78;94.64
69855;BME280;57146;48.140;16.304;2023-04-08T05:33:18;99552.09;;;2.79;94.83
69855;BME280;57146;48.140;16.304;2023-04-08T05:35:45;99550.53;;;2.78;94.99
69855;BME280;57146;48.140;16.304;2023-04-08T05:38:12;99557.66;;;2.88;93.46
69855;BME280;57146;48.140;16.304;2023-04-08T05:40:39;99569.22;;;2.75;93.81
69855;BME280;57146;48.140;16.304;2023-04-08T05:43:06;99569.53;;;2.79;94.21
69855;BME280;57146;48.140;16.304;2023-04-08T05:45:33;99572.53;;;2.71;94.45
69855;BME280;57146;48.140;16.304;2023-04-08T05:48:00;99577.78;;;2.76;95.79
69855;BME280;57146;48.140;16.304;2023-04-08T05:50:27;99572.19;;;2.84;95.44
69855;BME280;57146;48.140;16.304;2023-04-08T05:52:54;99576.41;;;2.90;95.28
69855;BME280;57146;48.140;16.304;2023-04-08T05:55:21;99583.25;;;2.96;94.86
69855;BME280;57146;48.140;16.304;2023-04-08T05:57:48;99590.59;;;2.99;93.72
69855;BME280;57146;48.140;16.304;2023-04-08T06:00:15;99588.47;;;2.96;94.67
69855;BME280;57146;48.140;16.304;2023-04-08T06:02:43;99589.16;;;2.92;94.32
69855;BME280;57146;48.140;16.304;2023-04-08T06:05:10;99584.97;;;3.07;93.51
69855;BME280;57146;48.140;16.304;2023-04-08T06:07:37;99584.03;;;3.19;92.00
69855;BME280;57146;48.140;16.304;2023-04-08T06:10:07;99588.94;;;3.15;91.81
69855;BME280;57146;48.140;16.304;2023-04-08T06:12:36;99596.25;;;3.18;91.90
69855;BME280;57146;48.140;16.304;2023-04-08T06:15:04;99600.91;;;3.16;92.07
69855;BME280;57146;48.140;16.304;2023-04-08T06:17:31;99590.31;;;3.23;92.20
69855;BME280;57146;48.140;16.304;2023-04-08T06:20:00;99598.63;;;3.20;92.07
69855;BME280;57146;48.140;16.304;2023-04-08T06:22:28;99589.72;;;3.16;92.48
69855;BME280;57146;48.140;16.304;2023-04-08T06:24:55;99591.63;;;3.20;91.78
69855;BME280;57146;48.140;16.304;2023-04-08T06:27:22;99596.88;;;3.25;91.20
69855;BME280;57146;48.140;16.304;2023-04-08T06:29:49;99601.50;;;3.23;91.28
69855;BME280;57146;48.140;16.304;2023-04-08T06:32:20;99604.13;;;3.23;91.10
69855;BME280;57146;48.140;16.304;2023-04-08T06:34:47;99603.78;;;3.15;91.80
69855;BME280;57146;48.140;16.304;2023-04-08T06:37:17;99599.16;;;3.22;92.59
69855;BME280;57146;48.140;16.304;2023-04-08T06:39:46;99609.84;;;3.20;92.19
69855;BME280;57146;48.140;16.304;2023-04-08T06:42:13;99611.13;;;3.23;92.42
69855;BME280;57146;48.140;16.304;2023-04-08T06:45:04;99615.34;;;3.24;92.46
69855;BME280;57146;48.140;16.304;2023-04-08T06:47:34;99621.06;;;3.26;92.44
69855;BME280;57146;48.140;16.304;2023-04-08T06:50:01;99616.41;;;3.28;92.13
69855;BME280;57146;48.140;16.304;2023-04-08T06:52:29;99619.50;;;3.25;92.75
69855;BME280;57146;48.140;16.304;2023-04-08T06:54:56;99626.53;;;3.24;93.09
69855;BME280;57146;48.140;16.304;2023-04-08T06:57:26;99613.63;;;3.34;92.81
69855;BME280;57146;48.140;16.304;2023-04-08T06:59:53;99619.94;;;3.39;92.57
69855;BME280;57146;48.140;16.304;2023-04-08T07:02:21;99618.59;;;3.36;91.69
69855;BME280;57146;48.140;16.304;2023-04-08T07:04:48;99621.16;;;3.31;92.32
69855;BME280;57146;48.140;16.304;2023-04-08T07:07:16;99634.34;;;3.24;93.74
69855;BME280;57146;48.140;16.304;2023-04-08T07:09:44;99625.78;;;3.29;93.53
69855;BME280;57146;48.140;16.304;2023-04-08T07:12:36;99621.38;;;3.29;94.08
69855;BME280;57146;48.140;16.304;2023-04-08T07:15:05;99630.81;;;3.35;94.82
69855;BME280;57146;48.140;16.304;2023-04-08T07:17:34;99630.06;;;3.40;93.24
69855;BME280;57146;48.140;16.304;2023-04-08T07:20:00;99637.16;;;3.45;92.39
69855;BME280;57146;48.140;16.304;2023-04-08T07:22:29;99641.09;;;3.47;91.94
69855;BME280;57146;48.140;16.304;2023-04-08T07:24:56;99637.97;;;3.45;92.73
69855;BME280;57146;48.140;16.304;2023-04-08T07:27:23;99647.84;;;3.48;92.31
69855;BME280;57146;48.140;16.304;2023-04-08T07:29:52;99653.63;;;3.50;92.16
69855;BME280;57146;48.140;16.304;2023-04-08T07:32:20;99645.81;;;3.50;92.04
69855;BME280;57146;48.140;16.304;2023-04-08T07:34:49;99647.94;;;3.53;92.54
69855;BME280;57146;48.140;16.304;2023-04-08T07:37:16;99647.69;;;3.55;92.37
69855;BME280;57146;48.140;16.304;2023-04-08T07:39:43;99660.34;;;3.46;92.66
69855;BME280;57146;48.140;16.304;2023-04-08T07:42:10;99660.78;;;3.38;94.23
69855;BME280;57146;48.140;16.304;2023-04-08T07:44:37;99668.94;;;3.47;92.43
69855;BME280;57146;48.140;16.304;2023-04-08T07:47:04;99668.00;;;3.58;91.86
69855;BME280;57146;48.140;16.304;2023-04-08T07:49:31;99664.59;;;3.52;91.93
69855;BME280;57146;48.140;16.304;2023-04-08T07:51:58;99670.09;;;3.56;91.34
69855;BME280;57146;48.140;16.304;2023-04-08T07:54:25;99673.72;;;3.55;91.69
69855;BME280;57146;48.140;16.304;2023-04-08T07:56:52;99674.19;;;3.52;92.14
69855;BME280;57146;48.140;16.304;2023-04-08T07:59:20;99677.59;;;3.52;93.07
69855;BME280;57146;48.140;16.304;2023-04-08T08:01:48;99685.94;;;3.54;92.85
69855;BME280;57146;48.140;16.304;2023-04-08T08:04:14;99684.97;;;3.60;92.99
69855;BME280;57146;48.140;16.304;2023-04-08T08:06:43;99675.66;;;3.65;91.95
69855;BME280;57146;48.140;16.304;2023-04-08T08:09:10;99680.84;;;3.65;91.18
69855;BME280;57146;48.140;16.304;2023-04-08T08:11:38;99683.19;;;3.66;91.22
69855;BME280;57146;48.140;16.304;2023-04-08T08:14:05;99687.03;;;3.58;91.82
69855;BME280;57146;48.140;16.304;2023-04-08T08:16:32;99691.44;;;3.58;93.13
69855;BME280;57146;48.140;16.304;2023-04-08T08:18:59;99696.72;;;3.63;92.96
69855;BME280;57146;48.140;16.304;2023-04-08T08:21:27;99691.00;;;3.66;91.56
69855;BME280;57146;48.140;16.304;2023-04-08T08:23:54;99698.53;;;3.63;90.77
69855;BME280;57146;48.140;16.304;2023-04-08T08:26:21;99696.47;;;3.65;91.32
69855;BME280;57146;48.140;16.304;2023-04-08T08:28:50;99698.28;;;3.64;92.08
69855;BME280;57146;48.140;16.304;2023-04-08T08:31:18;99710.56;;;3.69;91.85
69855;BME280;57146;48.140;16.304;2023-04-08T08:33:45;99704.84;;;3.67;91.22
69855;BME280;57146;48.140;16.304;2023-04-08T08:36:12;99705.53;;;3.62;91.78
69855;BME280;57146;48.140;16.304;2023-04-08T08:38:39;99712.66;;;3.67;92.47
69855;BME280;57146;48.140;16.304;2023-04-08T08:41:06;99712.41;;;3.46;93.71
69855;BME280;57146;48.140;16.304;2023-04-08T08:43:33;99720.75;;;3.48;93.74
69855;BME280;57146;48.140;16.304;2023-04-08T08:46:01;99718.38;;;3.47;95.41
69855;BME280;57146;48.140;16.304;2023-04-08T08:48:30;99716.56;;;3.47;95.33
69855;BME280;57146;48.140;16.304;2023-04-08T08:50:58;99718.25;;;3.58;94.06
69855;BME280;57146;48.140;16.304;2023-04-08T08:53:28;99722.69;;;3.58;92.92
69855;BME280;57146;48.140;16.304;2023-04-08T08:55:57;99726.63;;;3.60;92.23
69855;BME280;57146;48.140;16.304;2023-04-08T08:58:27;99734.88;;;3.52;93.40
69855;BME280;57146;48.140;16.304;2023-04-08T09:00:55;99738.47;;;3.51;94.17
69855;BME280;57146;48.140;16.304;2023-04-08T09:03:27;99733.53;;;3.50;94.90
69855;BME280;57146;48.140;16.304;2023-04-08T09:05:56;99737.25;;;3.59;94.19
69855;BME280;57146;48.140;16.304;2023-04-08T09:08:34;99745.94;;;3.43;94.66
69855;BME280;57146;48.140;16.304;2023-04-08T09:11:12;99745.63;;;3.39;95.50
69855;BME280;57146;48.140;16.304;2023-04-08T09:13:41;99750.44;;;3.30;96.50
69855;BME280;57146;48.140;16.304;2023-04-08T09:16:10;99751.66;;;3.45;95.06
69855;BME280;57146;48.140;16.304;2023-04-08T09:18:38;99760.75;;;3.42;95.20
69855;BME280;57146;48.140;16.304;2023-04-08T09:21:06;99764.97;;;3.48;94.42
69855;BME280;57146;48.140;16.304;2023-04-08T09:23:47;99761.69;;;3.53;95.20
69855;BME280;57146;48.140;16.304;2023-04-08T09:26:17;99763.81;;;3.56;95.17
69855;BME280;57146;48.140;16.304;2023-04-08T09:29:02;99764.28;;;3.53;95.06
69855;BME280;57146;48.140;16.304;2023-04-08T09:31:53;99766.63;;;3.54;94.79
69855;BME280;57146;48.140;16.304;2023-04-08T09:34:20;99773.91;;;3.52;95.01
69855;BME280;57146;48.140;16.304;2023-04-08T09:36:49;99778.13;;;3.58;96.02
69855;BME280;57146;48.140;16.304;2023-04-08T09:39:17;99773.63;;;3.71;94.03
69855;BME280;57146;48.140;16.304;2023-04-08T09:41:47;99780.41;;;3.72;94.55
69855;BME280;57146;48.140;16.304;2023-04-08T09:44:14;99780.34;;;3.67;92.96
69855;BME280;57146;48.140;16.304;2023-04-08T09:47:11;99786.22;;;3.79;93.00
69855;BME280;57146;48.140;16.304;2023-04-08T09:49:56;99780.50;;;3.60;94.20
69855;BME280;57146;48.140;16.304;2023-04-08T09:52:46;99788.53;;;3.58;93.41
69855;BME280;57146;48.140;16.304;2023-04-08T09:55:16;99781.91;;;3.68;93.82
69855;BME280;57146;48.140;16.304;2023-04-08T10:00:56;99785.88;;;3.53;95.86
69855;BME280;57146;48.140;16.304;2023-04-08T10:03:34;99787.53;;;3.59;95.97
69855;BME280;57146;48.140;16.304;2023-04-08T10:06:03;99788.53;;;3.58;96.61
69855;BME280;57146;48.140;16.304;2023-04-08T10:08:31;99788.16;;;3.67;94.89
69855;BME280;57146;48.140;16.304;2023-04-08T10:10:59;99782.13;;;3.66;94.32
69855;BME280;57146;48.140;16.304;2023-04-08T10:13:27;99785.56;;;3.67;94.75
69855;BME280;57146;48.140;16.304;2023-04-08T10:16:17;99784.94;;;3.81;95.46
69855;BME280;57146;48.140;16.304;2023-04-08T10:18:44;99786.56;;;3.88;93.06
69855;BME280;57146;48.140;16.304;2023-04-08T10:21:33;99790.38;;;3.80;93.82
69855;BME280;57146;48.140;16.304;2023-04-08T10:24:01;99790.81;;;3.94;93.53
69855;BME280;57146;48.140;16.304;2023-04-08T10:26:30;99792.63;;;3.93;94.02
69855;BME280;57146;48.140;16.304;2023-04-08T10:31:49;99783.84;;;3.99;93.22
69855;BME280;57146;48.140;16.304;2023-04-08T10:34:21;99792.28;;;4.06;91.58
69855;BME280;57146;48.140;16.304;2023-04-08T10:36:48;99802.44;;;4.08;93.17
69855;BME280;57146;48.140;16.304;2023-04-08T10:39:16;99808.69;;;4.07;91.23
69855;BME280;57146;48.140;16.304;2023-04-08T10:44:24;99804.44;;;4.01;93.19
69855;BME280;57146;48.140;16.304;2023-04-08T10:46:53;99803.19;;;4.03;93.74
69855;BME280;57146;48.140;16.304;2023-04-08T10:49:20;99806.13;;;4.12;93.38
69855;BME280;57146;48.140;16.304;2023-04-08T10:51:48;99807.13;;;4.06;92.77
69855;BME280;57146;48.140;16.304;2023-04-08T10:54:16;99804.13;;;4.19;93.25
69855;BME280;57146;48.140;16.304;2023-04-08T10:56:49;99809.28;;;4.14;92.18
69855;BME280;57146;48.140;16.304;2023-04-08T10:59:27;99816.56;;;4.12;93.42
69855;BME280;57146;48.140;16.304;2023-04-08T11:01:54;99809.16;;;4.04;93.89
69855;BME280;57146;48.140;16.304;2023-04-08T11:04:21;99811.63;;;4.16;92.24
69855;BME280;57146;48.140;16.304;2023-04-08T11:06:48;99814.88;;;4.01;93.98
69855;BME280;57146;48.140;16.304;2023-04-08T11:09:15;99812.25;;;4.01;93.23
69855;BME280;57146;48.140;16.304;2023-04-08T11:12:07;99814.88;;;4.01;92.46
69855;BME280;57146;48.140;16.304;2023-04-08T11:14:39;99815.50;;;3.91;94.07
69855;BME280;57146;48.140;16.304;2023-04-08T11:17:06;99821.34;;;3.98;93.62
69855;BME280;57146;48.140;16.304;2023-04-08T11:19:34;99825.28;;;4.01;92.94
69855;BME280;57146;48.140;16.304;2023-04-08T11:22:01;99818.38;;;4.12;91.16
69855;BME280;57146;48.140;16.304;2023-04-08T11:24:28;99823.19;;;4.20;89.84
69855;BME280;57146;48.140;16.304;2023-04-08T11:27:20;99825.22;;;3.96;92.58
69855;BME280;57146;48.140;16.304;2023-04-08T11:29:49;99823.94;;;3.98;91.45
69855;BME280;57146;48.140;16.304;2023-04-08T11:32:16;99823.41;;;3.96;92.51
69855;BME280;57146;48.140;16.304;2023-04-08T11:34:46;99819.59;;;4.04;92.80
69855;BME280;57146;48.140;16.304;2023-04-08T11:37:14;99829.75;;;4.05;92.58
69855;BME280;57146;48.140;16.304;2023-04-08T11:39:44;99823.22;;;4.03;93.75
69855;BME280;57146;48.140;16.304;2023-04-08T11:42:28;99823.72;;;4.00;94.96
69855;BME280;57146;48.140;16.304;2023-04-08T11:44:55;99831.75;;;3.98;92.70
69855;BME280;57146;48.140;16.304;2023-04-08T11:47:32;99826.25;;;3.95;93.87
69855;BME280;57146;48.140;16.304;2023-04-08T11:50:02;99835.22;;;4.04;93.11
69855;BME280;57146;48.140;16.304;2023-04-08T11:52:46;99837.22;;;4.19;92.25
69855;BME280;57146;48.140;16.304;2023-04-08T11:55:30;99833.59;;;4.20;90.82
69855;BME280;57146;48.140;16.304;2023-04-08T11:58:03;99834.31;;;4.15;91.48
69855;BME280;57146;48.140;16.304;2023-04-08T12:00:30;99832.63;;;4.04;92.09
69855;BME280;57146;48.140;16.304;2023-04-08T12:02:57;99833.66;;;4.03;91.59
69855;BME280;57146;48.140;16.304;2023-04-08T12:05:24;99839.16;;;4.06;92.36
69855;BME280;57146;48.140;16.304;2023-04-08T12:07:51;99837.16;;;4.14;91.92
69855;BME280;57146;48.140;16.304;2023-04-08T12:10:18;99834.13;;;4.22;90.01
69855;BME280;57146;48.140;16.304;2023-04-08T12:13:09;99836.56;;;4.06;91.15
69855;BME280;57146;48.140;16.304;2023-04-08T12:15:36;99831.41;;;4.12;91.23
69855;BME280;57146;48.140;16.304;2023-04-08T12:18:04;99836.25;;;4.25;90.34
69855;BME280;57146;48.140;16.304;2023-04-08T12:20:31;99842.81;;;4.27;89.84
69855;BME280;57146;48.140;16.304;2023-04-08T12:22:59;99835.16;;;4.21;90.93
69855;BME280;57146;48.140;16.304;2023-04-08T12:25:27;99838.84;;;4.25;91.59
69855;BME280;57146;48.140;16.304;2023-04-08T12:27:54;99828.06;;;4.38;91.13
69855;BME280;57146;48.140;16.304;2023-04-08T12:30:25;99838.31;;;4.45;89.04
69855;BME280;57146;48.140;16.304;2023-04-08T12:32:51;99838.34;;;4.50;89.01
69855;BME280;57146;48.140;16.304;2023-04-08T12:35:22;99828.88;;;4.44;90.59
69855;BME280;57146;48.140;16.304;2023-04-08T12:37:49;99835.25;;;4.53;91.10
69855;BME280;57146;48.140;16.304;2023-04-08T12:40:18;99835.69;;;4.72;88.77
69855;BME280;57146;48.140;16.304;2023-04-08T12:42:45;99829.94;;;4.70;87.38
69855;BME280;57146;48.140;16.304;2023-04-08T12:45:11;99839.34;;;4.71;86.12
69855;BME280;57146;48.140;16.304;2023-04-08T12:47:39;99840.91;;;4.72;86.39
69855;BME280;57146;48.140;16.304;2023-04-08T12:50:07;99832.84;;;4.73;85.89
69855;BME280;57146;48.140;16.304;2023-04-08T12:52:34;99839.03;;;4.67;85.51
69855;BME280;57146;48.140;16.304;2023-04-08T12:55:03;99843.47;;;4.67;85.79
69855;BME280;57146;48.140;16.304;2023-04-08T12:57:30;99848.63;;;4.62;87.72
69855;BME280;57146;48.140;16.304;2023-04-08T12:59:58;99839.22;;;4.61;86.56
69855;BME280;57146;48.140;16.304;2023-04-08T13:02:24;99844.59;;;4.49;86.98
69855;BME280;57146;48.140;16.304;2023-04-08T13:04:51;99846.41;;;4.48;87.75
69855;BME280;57146;48.140;16.304;2023-04-08T13:07:18;99845.91;;;4.51;87.13
69855;BME280;57146;48.140;16.304;2023-04-08T13:09:48;99848.28;;;4.53;87.61
69855;BME280;57146;48.140;16.304;2023-04-08T13:12:16;99844.41;;;4.55;86.76
69855;BME280;57146;48.140;16.304;2023-04-08T13:14:42;99842.88;;;4.60;85.57
69855;BME280;57146;48.140;16.304;2023-04-08T13:17:09;99846.78;;;4.62;86.47
69855;BME280;57146;48.140;16.304;2023-04-08T13:19:36;99841.34;;;4.64;87.24
69855;BME280;57146;48.140;16.304;2023-04-08T13:22:05;99850.56;;;4.71;86.07
69855;BME280;57146;48.140;16.304;2023-04-08T13:24:31;99843.81;;;4.75;86.45
69855;BME280;57146;48.140;16.304;2023-04-08T13:26:58;99850.28;;;4.73;85.85
69855;BME280;57146;48.140;16.304;2023-04-08T13:29:25;99845.06;;;4.73;85.78